Hauptseite
METAR-TAF:

METAR-TAF

Flughäfen :

Genua, Italien

Flughafen Genua

Breite: 44-25N, Länge: 008-51E, Höhe: 2 m

Beobachtung

Neuester Wetterbericht von vor 37 Minuten, um 10:50 UTC
Wind 2 kt aus unterschiedlichen Richtungen
Temperatur 17°C
Luftfeuchtigkeit 68%
Luftdruck 1020 hPa
Sichtweite 10 km oder mehr
Leicht bewölkt in der Höhe von 2500 ft
Aufgelockert bewölkt in der Höhe von 5000 ft

METAR: LIMJ 231050Z VRB02KT 9999 FEW025 SCT050 17/11 Q1020

Zeit: 12:27 (11:27 UTC)

Prognose

Neuester Wetterbericht von vor 6 Stunden und 27 Minuten, um 05:00 UTC
Gültige Prognose vom 23 um 06 UTC bis 24 um 06 UTC
Wind 6 kt aus Ost/Südost
Sichtweite 10 km oder mehr
Aufgelockert bewölkt in der Höhe von 1500 ft
Durchbrochene Bewölkung in der Höhe von 3500 ft
Zeitweise
vom 23 um 06 UTC bis 24 um 06 UTC
Sprühregen

TAF: LIMJ 230500Z 2306/2406 12006KT 9999 SCT015 BKN035 TEMPO 2306/2406 DZ

Wetterbeobachtungen und Prognosen von mehr als 4000 Flughäfen (METAR und TAF Bericht).

Die verfügbaren Stationen werden durch gelbe und rote Markierungen auf der Karte dargestellt.

Führen Sie die Maus auf sie, um den Namen der Station zu sehen.

Darauf klicken, um die Beobachtung von Wetterbeobachtungen und Prognosen zu sehen.

Um die Karte zu ändern : klicken Sie auf den grünen Tasten mit einem schwarzen Kreuz Zum Vergrößern, auf den grünen Button mit einem Gedankenstrich zu verkleinern, oder auf die grünen Pfeile für benachbarte Karten.


METAR-TAF: